Time;durP1;ratioP1;P1;durP2;ratioP2;P2;SDS_P1;SDS_P2;PMS_P1;PMS_P2;Temp;Humidity;BMP_temperature;BMP_pressure;BME280_temperature;BME280_humidity;BME280_pressure;Samples;Min_cycle;Max_cycle;Signal;HPM_P1;HPM_P2
2022/09/07 00:00:53;;;;;;;10.55;2.55;;;;;;;23.69;73.75;100879.63;5047904;28;20048;-73
2022/09/07 00:03:19;;;;;;;7.78;2.72;;;;;;;23.63;76.59;100882.31;5048142;28;20078;-73
2022/09/07 00:05:48;;;;;;;18.95;2.80;;;;;;;23.38;80.07;100896.16;5050216;28;20052;-72
2022/09/07 00:08:17;;;;;;;14.98;2.97;;;;;;;23.19;83.41;100918.06;5051514;28;20057;-79
2022/09/07 00:10:50;;;;;;;14.05;2.63;;;;;;;;;;5054640;28;20048;-76
2022/09/07 00:13:17;;;;;;;9.23;1.63;;;;;;;22.94;90.55;100912.84;5054142;28;20045;-80
2022/09/07 00:15:43;;;;;;;6.93;1.77;;;;;;;22.61;96.45;100914.84;5052523;28;20103;-75
2022/09/07 00:18:10;;;;;;;6.97;1.65;;;;;;;22.42;100.00;100933.06;5052966;28;20048;-76
2022/09/07 00:20:36;;;;;;;4.43;1.45;;;;;;;21.88;100.00;100931.06;5053261;28;20048;-77
2022/09/07 00:23:03;;;;;;;3.50;1.35;;;;;;;21.76;100.00;100925.56;5048998;28;20066;-76
2022/09/07 00:25:29;;;;;;;3.70;1.20;;;;;;;21.52;100.00;100919.75;5049312;28;20055;-78
2022/09/07 00:27:58;;;;;;;8.40;1.85;;;;;;;21.56;100.00;100909.09;5057882;28;20493;-76
2022/09/07 00:30:24;;;;;;;5.18;1.50;;;;;;;21.36;100.00;100927.72;5062896;28;20040;-74
2022/09/07 00:32:51;;;;;;;9.43;2.30;;;;;;;21.27;100.00;100919.22;5069231;28;20446;-73
2022/09/07 00:35:17;;;;;;;7.60;2.35;;;;;;;21.19;100.00;100909.53;5068371;28;20113;-73
2022/09/07 00:37:44;;;;;;;5.68;1.85;;;;;;;21.06;100.00;100911.69;5061098;28;20132;-73
2022/09/07 00:40:11;;;;;;;3.13;1.35;;;;;;;20.95;100.00;100916.97;5064407;28;20513;-74
2022/09/07 00:42:38;;;;;;;4.45;2.00;;;;;;;20.94;100.00;100915.38;5058492;28;20219;-74
2022/09/07 00:45:09;;;;;;;0.82;0.52;;;;;;;20.75;100.00;100928.53;5055374;28;20114;-74
2022/09/07 00:47:38;;;;;;;7.07;3.03;;;;;;;20.72;100.00;100928.69;5052825;28;20102;-74
2022/09/07 00:50:34;;;;;;;7.03;2.80;;;;;;;20.61;100.00;100931.91;5067817;28;20123;-73
2022/09/07 00:53:18;;;;;;;3.03;1.50;;;;;;;20.41;100.00;100927.91;5059840;28;20052;-71
2022/09/07 00:55:48;;;;;;;2.55;0.95;;;;;;;20.24;100.00;100916.88;5058255;28;20059;-74
2022/09/07 00:58:15;;;;;;;6.80;2.60;;;;;;;20.25;100.00;100926.09;5063412;28;20090;-73
2022/09/07 01:00:44;;;;;;;8.05;2.58;;;;;;;20.17;100.00;100927.59;5061961;28;20473;-74
2022/09/07 01:03:11;;;;;;;5.80;1.90;;;;;;;20.08;100.00;100933.88;5060177;28;20501;-72
2022/09/07 01:05:40;;;;;;;7.00;1.77;;;;;;;19.87;100.00;100934.66;5070009;28;20155;-72
2022/09/07 01:08:08;;;;;;;7.15;2.60;;;;;;;19.86;100.00;100919.06;5067123;28;20063;-73
2022/09/07 01:10:35;;;;;;;10.75;2.70;;;;;;;19.70;100.00;100918.44;5059437;28;20115;-73
2022/09/07 01:13:02;;;;;;;9.73;3.28;;;;;;;19.60;100.00;100928.81;5068557;28;20052;-73
2022/09/07 01:16:05;;;;;;;9.32;2.53;;;;;;;19.49;100.00;100925.59;5069175;28;20048;-74
2022/09/07 01:19:08;;;;;;;13.57;2.25;;;;;;;19.50;100.00;100920.75;5063842;28;20045;-73
2022/09/07 01:21:38;;;;;;;9.98;2.35;;;;;;;19.43;100.00;100935.00;5065195;28;20049;-73
2022/09/07 01:24:23;;;;;;;15.48;3.33;;;;;;;19.45;100.00;100922.13;5069242;28;20049;-75
2022/09/07 01:26:52;;;;;;;12.43;3.17;;;;;;;19.35;100.00;100934.50;5061239;28;20061;-73
2022/09/07 01:29:40;;;;;;;12.32;3.17;;;;;;;19.29;100.00;100932.69;5066455;28;20056;-74
2022/09/07 01:32:29;;;;;;;15.88;3.70;;;;;;;19.26;100.00;100920.38;5058589;28;20049;-73
2022/09/07 01:34:58;;;;;;;12.85;3.97;;;;;;;19.29;100.00;100916.66;5061914;28;20047;-75
2022/09/07 01:37:40;;;;;;;12.18;3.55;;;;;;;19.25;100.00;100906.75;5069548;28;20052;-72
2022/09/07 01:40:21;;;;;;;15.43;4.10;;;;;;;19.26;100.00;100916.75;5061738;28;20223;-73
2022/09/07 01:42:55;;;;;;;12.20;4.50;;;;;;;19.28;100.00;100906.69;5054464;28;20049;-74
2022/09/07 01:45:28;;;;;;;16.67;4.30;;;;;;;19.30;100.00;100901.38;5072006;28;20058;-74
2022/09/07 01:47:58;;;;;;;13.63;4.13;;;;;;;19.36;100.00;100893.19;5064884;28;20048;-74
2022/09/07 01:50:27;;;;;;;11.32;4.18;;;;;;;19.49;100.00;100863.84;5061194;28;20144;-76
2022/09/07 01:53:09;;;;;;;13.50;3.80;;;;;;;19.64;100.00;100841.69;5066889;28;20057;-74
2022/09/07 01:55:46;;;;;;;13.30;3.58;;;;;;;19.66;100.00;100825.94;5067546;28;20048;-73
2022/09/07 01:58:22;;;;;;;8.73;3.17;;;;;;;19.63;100.00;100826.06;5067358;28;20054;-72
2022/09/07 02:00:54;;;;;;;8.90;2.78;;;;;;;19.51;100.00;100822.06;5065768;28;20053;-73
2022/09/07 02:03:29;;;;;;;8.68;2.50;;;;;;;19.48;100.00;100811.75;5065526;28;20056;-74
2022/09/07 02:06:19;;;;;;;8.38;2.92;;;;;;;19.53;100.00;100805.56;5065693;28;20056;-74
2022/09/07 02:08:55;;;;;;;9.65;3.03;;;;;;;19.54;100.00;100809.16;5049294;28;20133;-72
2022/09/07 02:11:31;;;;;;;7.43;2.50;;;;;;;19.52;100.00;100806.81;5061902;28;20068;-74
2022/09/07 02:14:04;;;;;;;9.27;2.97;;;;;;;19.53;100.00;100796.34;5067641;28;20050;-72
2022/09/07 02:16:32;;;;;;;9.80;2.83;;;;;;;19.58;100.00;100790.94;5061764;28;20057;-74
2022/09/07 02:19:05;;;;;;;14.85;3.38;;;;;;;19.65;100.00;100776.63;5058341;28;20432;-74
2022/09/07 02:21:43;;;;;;;7.93;2.92;;;;;;;19.77;100.00;100772.97;5062888;28;20052;-75
2022/09/07 02:24:22;;;;;;;7.07;2.95;;;;;;;19.82;100.00;100764.00;5063878;28;20055;-73
2022/09/07 02:26:52;;;;;;;12.02;3.22;;;;;;;19.84;100.00;100753.06;5063383;28;20131;-74
2022/09/07 02:29:19;;;;;;;7.72;2.80;;;;;;;19.81;100.00;100745.56;5066565;28;20134;-74
2022/09/07 02:31:46;;;;;;;13.13;3.17;;;;;;;19.87;100.00;100754.94;5068096;28;20136;-72
2022/09/07 02:34:13;;;;;;;10.32;2.60;;;;;;;19.76;100.00;100754.59;5067468;28;20044;-72
2022/09/07 02:36:44;;;;;;;7.55;2.53;;;;;;;19.66;100.00;100757.78;5063635;28;20048;-74
2022/09/07 02:39:10;;;;;;;9.90;3.10;;;;;;;19.61;100.00;100758.38;5056962;28;20442;-73
2022/09/07 02:41:41;;;;;;;10.80;2.95;;;;;;;19.60;100.00;100756.81;5059310;28;20055;-72
2022/09/07 02:44:17;;;;;;;9.63;2.72;;;;;;;19.47;100.00;100756.88;5067696;28;20047;-72
2022/09/07 02:47:14;;;;;;;7.95;2.58;;;;;;;19.46;100.00;100762.94;5063118;28;20059;-74
2022/09/07 02:50:07;;;;;;;9.88;2.45;;;;;;;19.42;100.00;100774.31;5057519;28;20053;-75
2022/09/07 02:52:45;;;;;;;7.30;2.20;;;;;;;19.43;100.00;100764.66;5065789;28;20151;-75
2022/09/07 02:55:18;;;;;;;6.22;2.40;;;;;;;19.41;100.00;100761.50;5063637;28;20048;-74
2022/09/07 02:57:59;;;;;;;6.63;2.50;;;;;;;19.35;100.00;100763.34;5062433;28;20040;-73
2022/09/07 03:00:30;;;;;;;4.90;2.53;;;;;;;19.36;100.00;100758.50;5058817;28;20044;-76
2022/09/07 03:03:07;;;;;;;6.10;2.47;;;;;;;19.33;100.00;100754.59;5061895;28;20127;-74
2022/09/07 03:05:47;;;;;;;8.90;2.47;;;;;;;19.40;100.00;100759.16;5064718;28;20037;-72
2022/09/07 03:08:27;;;;;;;7.25;2.65;;;;;;;19.43;100.00;100764.66;5064330;28;20131;-74
2022/09/07 03:10:56;;;;;;;10.57;2.40;;;;;;;19.46;100.00;100758.13;5059952;28;20127;-73
2022/09/07 03:13:29;;;;;;;6.20;2.33;;;;;;;19.47;100.00;100754.06;5061366;28;20044;-74
2022/09/07 03:15:56;;;;;;;5.78;2.42;;;;;;;19.51;100.00;100760.31;5062612;28;20127;-72
2022/09/07 03:18:24;;;;;;;6.75;2.33;;;;;;;19.52;100.00;100759.09;5066106;28;20130;-73
2022/09/07 03:20:51;;;;;;;6.45;1.95;;;;;;;19.46;100.00;100752.50;5064253;28;20544;-74
2022/09/07 03:23:18;;;;;;;5.55;1.85;;;;;;;19.46;100.00;100748.91;5054039;28;20151;-73
2022/09/07 03:25:46;;;;;;;5.32;2.13;;;;;;;19.47;100.00;100748.44;5063425;28;20036;-73
2022/09/07 03:28:12;;;;;;;5.88;2.42;;;;;;;19.45;100.00;100750.16;5059415;28;20048;-73
2022/09/07 03:30:44;;;;;;;5.18;2.17;;;;;;;19.40;100.00;100747.94;5059539;28;20082;-73
2022/09/07 03:33:11;;;;;;;6.28;2.47;;;;;;;19.37;100.00;100744.00;5061735;28;20055;-73
2022/09/07 03:35:38;;;;;;;5.30;2.20;;;;;;;19.26;100.00;100745.63;5065161;28;20652;-74
2022/09/07 03:38:04;;;;;;;8.52;2.53;;;;;;;19.15;100.00;100754.44;5057727;28;20468;-75
2022/09/07 03:40:31;;;;;;;6.57;2.83;;;;;;;19.13;100.00;100744.91;5062456;28;20422;-74
2022/09/07 03:42:58;;;;;;;6.63;2.58;;;;;;;19.10;100.00;100752.19;5058083;28;20049;-72
2022/09/07 03:45:25;;;;;;;8.25;2.75;;;;;;;19.10;100.00;100755.00;5061459;28;20127;-73
2022/09/07 03:47:51;;;;;;;5.80;2.72;;;;;;;19.10;100.00;100752.19;5065275;28;20062;-72
2022/09/07 03:50:18;;;;;;;8.15;3.08;;;;;;;19.21;100.00;100752.59;5067061;28;20045;-74
2022/09/07 03:52:44;;;;;;;6.40;3.63;;;;;;;19.25;100.00;100760.88;5066046;28;20728;-77
2022/09/07 03:55:11;;;;;;;7.63;3.10;;;;;;;19.23;100.00;100764.13;5067079;28;20044;-72
2022/09/07 03:57:39;;;;;;;8.70;3.05;;;;;;;19.24;100.00;100759.31;5065983;28;20048;-72
2022/09/07 04:00:06;;;;;;;7.25;3.20;;;;;;;19.22;100.00;100758.97;5066227;28;20151;-72
2022/09/07 04:02:32;;;;;;;12.50;3.53;;;;;;;19.14;100.00;100752.84;5054366;28;20041;-68
2022/09/07 04:04:59;;;;;;;9.05;3.05;;;;;;;19.19;100.00;100763.50;5058494;28;20041;-72
2022/09/07 04:07:25;;;;;;;11.40;3.60;;;;;;;19.20;100.00;100756.63;5062957;28;20048;-72
2022/09/07 04:09:52;;;;;;;10.80;3.47;;;;;;;19.12;100.00;100755.31;5060777;28;20414;-71
2022/09/07 04:12:18;;;;;;;11.35;3.28;;;;;;;19.15;100.00;100762.03;5054609;28;20135;-72
2022/09/07 04:14:45;;;;;;;10.88;3.50;;;;;;;19.02;100.00;100766.91;5058735;28;20045;-73
2022/09/07 04:17:12;;;;;;;7.90;3.45;;;;;;;19.05;100.00;100755.59;5056825;28;20485;-72
2022/09/07 04:19:38;;;;;;;9.77;3.90;;;;;;;19.07;100.00;100758.69;5062649;28;20083;-72
2022/09/07 04:22:05;;;;;;;8.75;3.65;;;;;;;19.07;100.00;100766.34;5060235;28;20044;-72
2022/09/07 04:24:31;;;;;;;12.50;4.07;;;;;;;19.12;100.00;100762.94;5061634;28;20874;-75
2022/09/07 04:26:58;;;;;;;11.55;4.00;;;;;;;19.12;100.00;100760.94;5063482;28;20091;-74
2022/09/07 04:29:24;;;;;;;10.07;4.53;;;;;;;19.13;100.00;100765.31;5058981;28;20107;-74
2022/09/07 04:31:51;;;;;;;10.90;4.25;;;;;;;19.09;100.00;100763.84;5056860;28;20086;-71
2022/09/07 04:34:17;;;;;;;13.90;4.72;;;;;;;19.06;100.00;100765.56;5062877;28;20058;-72
2022/09/07 04:36:44;;;;;;;11.68;4.28;;;;;;;19.04;100.00;100768.00;5058637;28;20140;-71
2022/09/07 04:39:10;;;;;;;8.80;4.60;;;;;;;19.03;100.00;100760.09;5057392;28;20045;-73
2022/09/07 04:41:37;;;;;;;9.90;4.25;;;;;;;19.09;100.00;100761.84;5055624;28;20059;-71
2022/09/07 04:44:04;;;;;;;10.57;3.80;;;;;;;19.10;100.00;100763.41;5065851;28;20135;-72
2022/09/07 04:46:33;;;;;;;11.77;4.38;;;;;;;19.11;100.00;100762.19;5066381;28;20084;-73
2022/09/07 04:49:03;;;;;;;10.70;4.00;;;;;;;19.11;100.00;100765.00;5058699;28;20132;-74
2022/09/07 04:51:31;;;;;;;10.50;4.10;;;;;;;19.12;100.00;100772.16;5061199;28;20045;-73
2022/09/07 04:53:59;;;;;;;13.65;3.67;;;;;;;19.11;100.00;100773.41;5062556;28;20056;-71
2022/09/07 04:56:26;;;;;;;12.43;4.00;;;;;;;19.08;100.00;100771.50;5062456;28;20132;-75
2022/09/07 04:58:53;;;;;;;9.77;3.65;;;;;;;19.08;100.00;100777.09;5068247;28;20053;-71
2022/09/07 05:01:22;;;;;;;10.60;3.60;;;;;;;19.06;100.00;100778.78;5059682;28;20667;-74
2022/09/07 05:03:49;;;;;;;9.82;4.68;;;;;;;18.96;100.00;100774.31;5064572;28;20129;-72
2022/09/07 05:06:18;;;;;;;10.13;4.50;;;;;;;18.96;100.00;100775.13;5068222;28;20123;-74
2022/09/07 05:08:47;;;;;;;11.13;4.25;;;;;;;18.94;100.00;100771.19;5064926;28;20063;-71
2022/09/07 05:11:15;;;;;;;10.88;4.60;;;;;;;18.86;100.00;100765.03;5063644;28;20074;-74
2022/09/07 05:13:42;;;;;;;8.50;4.07;;;;;;;18.74;100.00;100765.88;5061971;28;20126;-72
2022/09/07 05:16:12;;;;;;;10.38;4.50;;;;;;;18.74;100.00;100763.06;5069626;28;20044;-72
2022/09/07 05:18:39;;;;;;;11.38;4.97;;;;;;;18.74;100.00;100773.50;5061440;28;20080;-72
2022/09/07 05:21:15;;;;;;;11.88;5.15;;;;;;;18.67;100.00;100763.31;5068848;28;20059;-72
2022/09/07 05:23:42;;;;;;;18.90;6.43;;;;;;;18.68;100.00;100770.47;5068934;28;20056;-74
2022/09/07 05:26:10;;;;;;;17.63;7.25;;;;;;;18.63;100.00;100770.25;5069123;28;20044;-72
2022/09/07 05:28:37;;;;;;;17.23;5.80;;;;;;;18.64;100.00;100767.00;5054901;28;20066;-75
2022/09/07 05:31:15;;;;;;;14.65;6.47;;;;;;;18.69;100.00;100769.22;5057475;28;20568;-75
2022/09/07 05:33:51;;;;;;;14.18;5.18;;;;;;;18.67;100.00;100770.94;5060331;28;20139;-72
2022/09/07 05:36:38;;;;;;;12.25;5.05;;;;;;;18.65;100.00;100767.78;5065881;28;20056;-74
2022/09/07 05:39:05;;;;;;;12.27;5.07;;;;;;;18.69;100.00;100777.63;5062579;28;20135;-70
2022/09/07 05:41:32;;;;;;;15.38;6.55;;;;;;;18.65;100.00;100776.19;5067119;28;20058;-72
2022/09/07 05:43:59;;;;;;;13.15;4.68;;;;;;;18.58;100.00;100773.63;5059210;28;20137;-74
2022/09/07 05:46:46;;;;;;;11.45;5.22;;;;;;;18.59;100.00;100766.81;5062527;28;20040;-74
2022/09/07 05:49:12;;;;;;;12.55;5.07;;;;;;;18.60;100.00;100765.56;5065296;28;20068;-75
2022/09/07 05:51:39;;;;;;;11.90;5.47;;;;;;;18.67;100.00;100768.91;5060972;28;20048;-75
2022/09/07 05:54:06;;;;;;;17.58;6.10;;;;;;;18.69;100.00;100771.28;5069936;28;20055;-72
2022/09/07 05:56:34;;;;;;;14.60;6.05;;;;;;;18.78;100.00;100779.75;5066513;28;20573;-74
2022/09/07 05:59:02;;;;;;;18.08;6.78;;;;;;;18.79;100.00;100779.31;5065854;28;20083;-74
2022/09/07 06:01:28;;;;;;;13.27;5.32;;;;;;;18.74;100.00;100779.88;5063053;28;20426;-75
2022/09/07 06:03:55;;;;;;;12.18;5.32;;;;;;;18.66;100.00;100775.75;5066145;28;20412;-75
2022/09/07 06:06:22;;;;;;;13.80;5.90;;;;;;;18.75;100.00;100781.44;5067110;28;20055;-73
2022/09/07 06:08:51;;;;;;;13.23;6.20;;;;;;;18.71;100.00;100785.59;5061007;28;20044;-73
2022/09/07 06:11:22;;;;;;;15.55;6.63;;;;;;;18.80;100.00;100800.50;5059557;28;20055;-72
2022/09/07 06:13:50;;;;;;;17.58;8.02;;;;;;;18.86;100.00;100800.72;5063546;28;20049;-70
2022/09/07 06:16:18;;;;;;;16.38;6.90;;;;;;;18.90;100.00;100815.41;5057909;28;20049;-73
2022/09/07 06:18:47;;;;;;;16.85;6.65;;;;;;;18.90;100.00;100815.41;5062831;28;20079;-72
2022/09/07 06:21:18;;;;;;;18.98;7.68;;;;;;;18.92;100.00;100810.91;5059754;28;20385;-75
2022/09/07 06:23:46;;;;;;;15.98;7.50;;;;;;;18.96;100.00;100808.75;5066471;28;20052;-74
2022/09/07 06:26:15;;;;;;;19.13;8.30;;;;;;;19.00;100.00;100803.81;5066693;28;20042;-74
2022/09/07 06:28:44;;;;;;;23.48;8.35;;;;;;;19.04;100.00;100810.06;5064674;28;20159;-74
2022/09/07 06:31:21;;;;;;;20.17;9.55;;;;;;;19.11;100.00;100809.06;5067868;28;20135;-75
2022/09/07 06:33:50;;;;;;;21.45;10.55;;;;;;;19.19;100.00;100801.97;5068064;28;20052;-75
2022/09/07 06:36:22;;;;;;;21.05;9.55;;;;;;;19.20;100.00;100807.13;5068941;28;20051;-77
2022/09/07 06:38:50;;;;;;;20.77;8.13;;;;;;;19.15;100.00;100810.53;5059687;28;20519;-76
2022/09/07 06:41:20;;;;;;;19.77;8.20;;;;;;;19.18;100.00;100798.41;5067128;28;20595;-76
2022/09/07 06:44:06;;;;;;;19.05;8.90;;;;;;;19.24;100.00;100812.63;5067269;28;20071;-75
2022/09/07 06:46:33;;;;;;;21.02;8.18;;;;;;;19.27;100.00;100812.50;5068191;28;20048;-74
2022/09/07 06:49:19;;;;;;;19.92;9.10;;;;;;;19.35;100.00;100801.84;5066950;28;20052;-72
2022/09/07 06:51:46;;;;;;;21.15;10.73;;;;;;;19.36;100.00;100801.38;5068143;28;20504;-75
2022/09/07 06:54:13;;;;;;;22.27;10.02;;;;;;;19.35;100.00;100811.03;5066845;28;20050;-74
2022/09/07 06:57:05;;;;;;;22.65;9.93;;;;;;;19.37;100.00;100810.59;5069504;28;20060;-74
2022/09/07 06:59:31;;;;;;;26.10;10.52;;;;;;;19.46;100.00;100822.66;5057977;28;20194;-74
2022/09/07 07:01:58;;;;;;;21.38;9.60;;;;;;;19.46;100.00;100825.47;5062387;28;20472;-70
2022/09/07 07:04:24;;;;;;;23.90;10.90;;;;;;;19.49;100.00;100818.94;5068301;28;20049;-72
2022/09/07 07:06:51;;;;;;;24.20;12.70;;;;;;;19.61;100.00;100820.13;5066068;28;20068;-73
2022/09/07 07:09:18;;;;;;;19.02;7.72;;;;;;;19.59;100.00;100817.00;5065857;28;20595;-70
2022/09/07 07:11:46;;;;;;;22.23;11.15;;;;;;;19.65;100.00;100824.34;5066609;28;20068;-71
2022/09/07 07:14:14;;;;;;;22.33;9.50;;;;;;;19.56;100.00;100832.72;5065350;28;20135;-68
2022/09/07 07:16:40;;;;;;;24.40;12.10;;;;;;;19.75;100.00;100831.59;5068302;28;20062;-71
2022/09/07 07:19:08;;;;;;;20.40;10.10;;;;;;;19.84;100.00;100840.09;5066963;28;20044;-72
2022/09/07 07:21:34;;;;;;;30.17;13.70;;;;;;;19.86;100.00;100851.69;5058254;28;20091;-74
2022/09/07 07:24:21;;;;;;;25.23;11.70;;;;;;;19.92;100.00;100844.19;5052970;28;20045;-72
2022/09/07 07:26:48;;;;;;;26.52;13.57;;;;;;;20.06;100.00;100848.53;5065969;28;20055;-68
2022/09/07 07:29:15;;;;;;;20.90;8.43;;;;;;;20.15;100.00;100849.38;5063640;28;20045;-71
2022/09/07 07:31:45;;;;;;;27.17;11.57;;;;;;;20.26;100.00;100840.56;5062255;28;20489;-72
2022/09/07 07:34:12;;;;;;;26.48;13.20;;;;;;;20.47;100.00;100850.16;5061625;28;20082;-69
2022/09/07 07:36:38;;;;;;;26.38;13.90;;;;;;;20.59;100.00;100852.09;5063700;28;20158;-71
2022/09/07 07:39:05;;;;;;;23.02;11.63;;;;;;;20.70;100.00;100849.63;5041172;28;20049;-73
2022/09/07 07:41:32;;;;;;;25.25;10.50;;;;;;;20.55;100.00;100859.91;5047538;28;20056;-71
2022/09/07 07:44:20;;;;;;;18.67;6.97;;;;;;;20.48;100.00;100869.38;5039205;28;20192;-72
2022/09/07 07:46:50;;;;;;;24.83;11.48;;;;;;;20.60;100.00;100862.09;5042329;28;20041;-72
2022/09/07 07:49:17;;;;;;;22.02;11.10;;;;;;;20.62;100.00;100870.84;5045462;28;20059;-73
2022/09/07 07:51:43;;;;;;;23.15;10.70;;;;;;;20.63;100.00;100872.41;5044615;28;20138;-71
2022/09/07 07:54:32;;;;;;;20.15;10.02;;;;;;;20.66;100.00;100882.75;5046982;28;20110;-71
2022/09/07 07:56:59;;;;;;;22.02;10.48;;;;;;;20.74;100.00;100878.38;5042443;28;20045;-73
2022/09/07 07:59:25;;;;;;;19.67;9.77;;;;;;;20.80;100.00;100882.16;5048294;28;20045;-73
2022/09/07 08:01:52;;;;;;;26.10;11.02;;;;;;;20.97;100.00;100884.31;5044928;28;20055;-72
2022/09/07 08:04:18;;;;;;;21.45;9.90;;;;;;;20.97;100.00;100875.06;5046513;28;20106;-75
2022/09/07 08:06:45;;;;;;;22.48;11.50;;;;;;;21.12;100.00;100874.00;5045247;28;20056;-74
2022/09/07 08:09:11;;;;;;;20.67;10.80;;;;;;;21.23;100.00;100887.66;5046576;28;20044;-74
2022/09/07 08:11:41;;;;;;;22.13;10.50;;;;;;;21.27;100.00;100894.69;5044305;28;20048;-74
2022/09/07 08:14:08;;;;;;;18.95;9.70;;;;;;;21.47;100.00;100891.44;5038859;28;20059;-72
2022/09/07 08:16:35;;;;;;;19.83;9.35;;;;;;;21.66;100.00;100895.81;5044594;28;20041;-74
2022/09/07 08:19:02;;;;;;;17.05;7.78;;;;;;;21.61;100.00;100897.25;5046691;28;20824;-73
2022/09/07 08:21:28;;;;;;;16.33;6.20;;;;;;;21.78;100.00;100901.34;5046449;28;20472;-72
2022/09/07 08:23:55;;;;;;;13.82;5.22;;;;;;;21.68;100.00;100896.94;5042335;28;20045;-74
2022/09/07 08:26:22;;;;;;;15.15;7.20;;;;;;;21.99;100.00;100902.41;5040622;28;20049;-74
2022/09/07 08:28:48;;;;;;;13.35;6.70;;;;;;;21.98;100.00;100910.09;5044168;28;21382;-73
2022/09/07 08:31:16;;;;;;;7.28;3.28;;;;;;;21.81;100.00;100910.88;5051289;28;20059;-72
2022/09/07 08:33:43;;;;;;;17.27;7.80;;;;;;;21.96;100.00;100904.16;5049393;28;20063;-74
2022/09/07 08:36:15;;;;;;;15.05;7.63;;;;;;;22.15;100.00;100902.09;5051084;28;20133;-72
2022/09/07 08:38:42;;;;;;;13.93;6.25;;;;;;;22.08;100.00;100908.06;5052022;28;20055;-74
2022/09/07 08:41:42;;;;;;;11.05;4.45;;;;;;;21.88;100.00;100904.94;5050928;28;20056;-71
2022/09/07 08:44:20;;;;;;;17.88;8.75;;;;;;;21.96;100.00;100909.78;5046879;28;20071;-72
2022/09/07 08:46:58;;;;;;;14.23;7.45;;;;;;;22.00;100.00;100906.81;5046622;28;20044;-72
2022/09/07 08:49:36;;;;;;;15.77;8.55;;;;;;;21.98;100.00;100904.47;5047515;28;20185;-73
2022/09/07 08:52:14;;;;;;;19.85;7.97;;;;;;;21.90;100.00;100908.06;5050346;28;20059;-72
2022/09/07 08:54:46;;;;;;;18.08;8.75;;;;;;;21.92;100.00;100903.53;5049104;28;20921;-73
2022/09/07 08:57:18;;;;;;;19.35;9.90;;;;;;;21.77;100.00;100899.75;5046221;28;20924;-71
2022/09/07 09:00:06;;;;;;;1.67;1.33;;;;;;;21.45;100.00;100899.56;5048305;28;20048;-72
2022/09/07 09:02:33;;;;;;;18.90;7.53;;;;;;;21.30;100.00;100910.66;5043002;28;20057;-71
2022/09/07 09:05:56;;;;;;;20.88;11.55;;;;;;;21.35;100.00;100893.13;5049279;28;20056;-70
2022/09/07 09:08:44;;;;;;;20.88;10.80;;;;;;;21.47;100.00;100883.00;5026578;28;20067;-71
2022/09/07 09:11:32;;;;;;;21.05;12.15;;;;;;;21.56;100.00;100874.56;5043437;28;20063;-72
2022/09/07 09:14:17;;;;;;;22.30;12.25;;;;;;;21.58;100.00;100858.75;5044115;28;20055;-72
2022/09/07 09:16:59;;;;;;;24.40;13.07;;;;;;;21.56;100.00;100877.38;5050113;28;20145;-73
2022/09/07 09:19:52;;;;;;;23.20;11.50;;;;;;;21.51;100.00;100887.22;5051706;28;20044;-72
2022/09/07 09:22:27;;;;;;;22.27;11.45;;;;;;;21.51;100.00;100900.50;5047012;28;20045;-70
2022/09/07 09:25:18;;;;;;;20.55;9.82;;;;;;;21.44;100.00;100904.41;5052864;28;20508;-73
2022/09/07 09:27:46;;;;;;;23.23;11.35;;;;;;;21.32;100.00;100902.50;5052012;28;20060;-71
2022/09/07 09:30:17;;;;;;;3.55;1.77;;;;;;;21.11;100.00;100914.66;5050032;28;20863;-71
2022/09/07 09:32:46;;;;;;;25.27;11.95;;;;;;;21.23;100.00;100922.19;5052389;28;20055;-72
2022/09/07 09:35:18;;;;;;;23.15;11.75;;;;;;;21.39;100.00;100926.78;5050275;28;20146;-72
2022/09/07 09:37:45;;;;;;;22.98;12.45;;;;;;;21.54;100.00;100917.25;5049964;28;20052;-74
2022/09/07 09:40:32;;;;;;;10.18;4.72;;;;;;;21.50;100.00;100919.41;5050515;28;20052;-72
2022/09/07 09:43:00;;;;;;;13.77;6.22;;;;;;;21.57;100.00;100918.34;5044743;28;20060;-72
2022/09/07 09:45:30;;;;;;;14.50;6.10;;;;;;;21.73;100.00;100916.03;5048454;28;20084;-72
2022/09/07 09:48:21;;;;;;;17.48;8.13;;;;;;;21.73;100.00;100904.00;5044226;28;20209;-73
2022/09/07 09:50:53;;;;;;;11.77;4.78;;;;;;;21.70;100.00;100908.50;5046674;28;20105;-72
2022/09/07 09:53:53;;;;;;;20.05;10.02;;;;;;;22.00;100.00;100913.22;5046199;28;20194;-73
2022/09/07 09:56:21;;;;;;;19.83;10.38;;;;;;;22.21;100.00;100911.47;5047777;28;20058;-73
2022/09/07 09:58:48;;;;;;;22.13;11.45;;;;;;;22.42;100.00;100907.69;5048726;28;20052;-76
2022/09/07 10:01:31;;;;;;;20.58;11.40;;;;;;;22.46;100.00;100911.91;5040991;28;20056;-78
2022/09/07 10:04:22;;;;;;;20.10;10.43;;;;;;;22.59;100.00;100918.16;5032662;28;20063;-72
2022/09/07 10:06:52;;;;;;;21.23;10.25;;;;;;;22.50;100.00;100912.53;5046557;28;20048;-74
2022/09/07 10:09:31;;;;;;;22.92;11.40;;;;;;;22.65;100.00;100916.25;5047630;28;20052;-76
2022/09/07 10:12:05;;;;;;;23.48;13.02;;;;;;;22.75;100.00;100928.28;5039260;28;20242;-75
2022/09/07 10:14:41;;;;;;;26.25;16.65;;;;;;;22.82;100.00;100916.66;5049288;28;20761;-76
2022/09/07 10:17:36;;;;;;;27.52;17.23;;;;;;;22.81;100.00;100931.25;5049078;28;20049;-74
2022/09/07 10:20:15;;;;;;;27.20;17.33;;;;;;;22.42;100.00;100933.06;5046469;28;20052;-74
2022/09/07 10:22:43;;;;;;;28.50;17.80;;;;;;;22.33;100.00;100930.22;5051538;28;20053;-75
2022/09/07 10:25:46;;;;;;;13.63;6.35;;;;;;;22.04;100.00;100932.78;5047008;28;20093;-77
2022/09/07 10:28:21;;;;;;;27.77;16.48;;;;;;;22.10;100.00;100928.88;5012223;28;20565;-75
2022/09/07 10:30:59;;;;;;;29.65;18.95;;;;;;;22.24;100.00;100930.28;5047320;28;20185;-79
2022/09/07 10:33:50;;;;;;;27.85;18.05;;;;;;;22.35;100.00;100922.88;5044016;28;20048;-76
2022/09/07 10:36:45;;;;;;;30.92;17.92;;;;;;;22.68;100.00;100917.34;5049730;28;20163;-77
2022/09/07 10:39:25;;;;;;;24.00;14.82;;;;;;;22.79;100.00;100917.63;5055047;28;20064;-82
2022/09/07 10:42:03;;;;;;;13.60;6.70;;;;;;;22.84;100.00;100916.19;5053157;28;20048;-78
2022/09/07 10:44:30;;;;;;;25.00;15.40;;;;;;;23.25;100.00;100918.97;5046091;28;20534;-81
2022/09/07 10:47:05;;;;;;;26.27;14.32;;;;;;;23.41;100.00;100921.38;5049825;28;20055;-78
2022/09/07 10:49:41;;;;;;;;;;;;;;;23.81;100.00;100923.75;5052318;28;20155;-78
2022/09/07 10:52:37;;;;;;;23.95;13.80;;;;;;;24.21;100.00;100919.19;5048551;28;20023;-78
2022/09/07 10:55:16;;;;;;;20.95;12.25;;;;;;;24.30;100.00;100921.91;5050661;28;20517;-76
2022/09/07 10:58:12;;;;;;;24.00;13.20;;;;;;;24.28;100.00;100927.31;5043949;28;20548;-70
2022/09/07 11:00:57;;;;;;;22.77;13.65;;;;;;;24.26;100.00;100926.22;5030406;28;20056;-72
2022/09/07 11:03:39;;;;;;;17.17;9.02;;;;;;;23.80;100.00;100927.84;5046771;28;20048;-74
2022/09/07 11:06:28;;;;;;;16.67;6.47;;;;;;;23.78;100.00;100927.53;5044437;28;20040;-74
2022/09/07 11:09:12;;;;;;;22.50;16.00;;;;;;;23.75;100.00;100923.66;5045072;28;20495;-72
2022/09/07 11:11:56;;;;;;;19.88;10.95;;;;;;;23.73;100.00;100922.56;5045316;28;20308;-71
2022/09/07 11:14:30;;;;;;;20.70;15.98;;;;;;;23.91;100.00;100926.03;5047813;28;20778;-72
2022/09/07 11:17:02;;;;;;;22.40;14.48;;;;;;;23.95;100.00;100923.03;5043567;28;20044;-72
2022/09/07 11:19:50;;;;;;;22.75;15.55;;;;;;;23.92;100.00;100919.13;5047084;28;20063;-73
2022/09/07 11:22:29;;;;;;;17.65;11.65;;;;;;;23.85;100.00;100915.88;5048177;28;20040;-75
2022/09/07 11:25:05;;;;;;;21.30;15.45;;;;;;;23.79;100.00;100921.41;5047270;28;20052;-73
2022/09/07 11:28:25;;;;;;;22.40;14.18;;;;;;;24.07;100.00;100922.78;5048661;28;20168;-73
2022/09/07 11:31:14;;;;;;;18.30;10.55;;;;;;;24.07;100.00;100928.44;5045719;28;20048;-74
2022/09/07 11:34:03;;;;;;;20.17;12.60;;;;;;;23.95;100.00;100921.00;5040127;28;20078;-78
2022/09/07 11:36:57;;;;;;;22.00;15.13;;;;;;;24.71;100.00;100914.44;5048541;28;20860;-73